createdAt,value
2018-01-30T00:00:24.523Z,81.35
2018-01-30T00:01:34.805Z,80.4
2018-01-30T00:02:44.721Z,80.49
2018-01-30T00:03:55.824Z,81.16
2018-01-30T00:05:05.960Z,80.68
2018-01-30T00:06:16.147Z,80.49
2018-01-30T00:07:26.044Z,81.25
2018-01-30T00:08:36.182Z,81.06
2018-01-30T00:09:46.036Z,81.06
2018-01-30T00:10:56.219Z,81.35
2018-01-30T00:12:06.340Z,80.96
2018-01-30T00:13:16.482Z,81.54
2018-01-30T00:14:26.648Z,81.54
2018-01-30T00:15:36.770Z,82.2
2018-01-30T00:16:46.893Z,81.92
2018-01-30T00:17:57.023Z,81.35
2018-01-30T00:19:07.142Z,81.02
2018-01-30T00:20:17.339Z,80.68
2018-01-30T00:21:27.489Z,80.68
2018-01-30T00:22:37.721Z,80.68
2018-01-30T00:23:47.849Z,80.11
2018-01-30T00:24:58.002Z,79.5
2018-01-30T00:26:08.136Z,79.5
2018-01-30T00:27:18.291Z,79.69
2018-01-30T00:28:28.420Z,79.69
2018-01-30T00:29:38.805Z,79.69
2018-01-30T00:30:48.955Z,79.41
2018-01-30T00:31:59.237Z,79.97
2018-01-30T00:33:09.481Z,79.92
2018-01-30T00:34:19.356Z,80.3
2018-01-30T00:35:29.220Z,80.02
2018-01-30T00:36:39.387Z,80.49
2018-01-30T00:37:49.516Z,80.4
2018-01-30T00:38:59.642Z,80.55
2018-01-30T00:40:09.777Z,80.16
2018-01-30T00:41:19.913Z,80.3
2018-01-30T00:42:29.797Z,80.26
2018-01-30T00:43:39.939Z,80.45
2018-01-30T00:44:50.102Z,80.55
2018-01-30T00:46:00.237Z,80.45
2018-01-30T00:47:10.338Z,80.35
2018-01-30T00:48:20.496Z,80.55
2018-01-30T00:49:30.289Z,80.35
2018-01-30T00:50:40.170Z,79.69
2018-01-30T00:51:50.433Z,80.07
2018-01-30T00:53:00.583Z,80.45
2018-01-30T00:54:10.702Z,80.26
2018-01-30T00:55:20.824Z,80.55
2018-01-30T00:56:30.944Z,80.16
2018-01-30T00:57:41.159Z,79.69
2018-01-30T00:58:51.373Z,80.35
2018-01-30T01:00:01.608Z,79.97
2018-01-30T01:01:11.747Z,79.69
2018-01-30T01:02:21.995Z,79.5
2018-01-30T01:03:32.101Z,79.6
2018-01-30T01:04:42.257Z,79.79
2018-01-30T01:05:52.370Z,79.97
2018-01-30T01:07:02.532Z,80.07
2018-01-30T01:08:12.675Z,80.07
2018-01-30T01:09:23.787Z,80.55
2018-01-30T01:10:33.920Z,80.55
2018-01-30T01:11:44.204Z,80.35
2018-01-30T01:12:54.341Z,80.55
2018-01-30T01:14:04.235Z,81.12
2018-01-30T01:15:14.389Z,80.26
2018-01-30T01:16:24.721Z,80.83
2018-01-30T01:17:34.930Z,80.07
2018-01-30T01:18:45.203Z,80.16
2018-01-30T01:19:55.392Z,80.35
2018-01-30T01:21:05.590Z,80.55
2018-01-30T01:22:15.789Z,80.45
2018-01-30T01:23:25.963Z,80.45
2018-01-30T01:24:36.091Z,80.45
2018-01-30T01:25:46.358Z,80.26
2018-01-30T01:26:56.531Z,80.16
2018-01-30T01:28:06.953Z,80.45
2018-01-30T01:29:17.164Z,80.35
2018-01-30T01:30:27.291Z,80.55
2018-01-30T01:31:37.542Z,80.35
2018-01-30T01:32:47.781Z,80.55
2018-01-30T01:33:57.920Z,80.26
2018-01-30T01:35:08.140Z,80.45
2018-01-30T01:36:18.296Z,80.07
2018-01-30T01:37:28.466Z,80.16
2018-01-30T01:38:38.447Z,80.16
2018-01-30T01:39:48.643Z,81.02
2018-01-30T01:40:58.841Z,80.83
2018-01-30T01:42:08.997Z,80.93
2018-01-30T01:43:19.117Z,81.12
2018-01-30T01:44:29.256Z,81.21
2018-01-30T01:45:39.371Z,81.49
2018-01-30T01:46:49.537Z,81.59
2018-01-30T01:47:59.694Z,81.4
2018-01-30T01:49:09.842Z,81.68
2018-01-30T01:50:19.737Z,81.4
2018-01-30T01:51:29.490Z,81.4
2018-01-30T01:52:39.618Z,81.68
2018-01-30T01:53:49.810Z,81.3
2018-01-30T01:54:59.954Z,81.3
2018-01-30T01:56:10.096Z,81.49
2018-01-30T01:57:20.194Z,81.3
2018-01-30T01:58:30.316Z,81.59
2018-01-30T01:59:40.461Z,81.59
2018-01-30T02:00:50.585Z,80.64
2018-01-30T02:02:00.751Z,80.45
2018-01-30T02:03:11.028Z,80.16
2018-01-30T02:04:21.136Z,80.55
2018-01-30T02:05:31.234Z,80.64
2018-01-30T02:06:41.418Z,80.83
2018-01-30T02:07:51.567Z,80.64
2018-01-30T02:09:01.766Z,80.16
2018-01-30T02:10:11.951Z,80.35
2018-01-30T02:11:22.190Z,80.55
2018-01-30T02:12:32.323Z,80.55
2018-01-30T02:13:42.472Z,80.55
2018-01-30T02:14:52.642Z,80.45
2018-01-30T02:16:02.750Z,80.16
2018-01-30T02:17:12.872Z,80.45
2018-01-30T02:18:23.033Z,80.55
2018-01-30T02:19:33.164Z,80.07
2018-01-30T02:20:43.299Z,79.5
2018-01-30T02:21:53.418Z,79.6
2018-01-30T02:23:03.540Z,79.79
2018-01-30T02:24:13.708Z,79.6
2018-01-30T02:25:23.586Z,79.6
2018-01-30T02:26:33.728Z,79.69
2018-01-30T02:27:43.956Z,79.69
2018-01-30T02:28:54.149Z,79.22
2018-01-30T02:30:04.289Z,79.22
2018-01-30T02:31:14.553Z,79.6
2018-01-30T02:32:24.296Z,79.41
2018-01-30T02:33:34.428Z,79.41
2018-01-30T02:34:44.634Z,79.31
2018-01-30T02:35:54.795Z,79.22
2018-01-30T02:37:04.701Z,79.69
2018-01-30T02:38:14.853Z,79.69
2018-01-30T02:39:24.969Z,79.5
2018-01-30T02:40:35.094Z,79.22
2018-01-30T02:41:45.231Z,79.6
2018-01-30T02:42:55.343Z,79.6
2018-01-30T02:44:05.573Z,79.88
2018-01-30T02:45:15.701Z,80.16
2018-01-30T02:46:25.902Z,79.69
2018-01-30T02:47:35.768Z,79.41
2018-01-30T02:48:45.958Z,79.97
2018-01-30T02:49:56.136Z,80.07
2018-01-30T02:51:06.292Z,79.31
2018-01-30T02:52:16.553Z,79.79
2018-01-30T02:53:26.749Z,79.22
2018-01-30T02:54:36.955Z,79.88
2018-01-30T02:55:47.098Z,79.22
2018-01-30T02:56:57.233Z,79.6
2018-01-30T02:58:07.349Z,79.79
2018-01-30T02:59:17.523Z,79.69
2018-01-30T03:00:27.683Z,79.69
2018-01-30T03:01:37.848Z,79.6
2018-01-30T03:02:48.038Z,79.6
2018-01-30T03:03:58.296Z,79.79
2018-01-30T03:05:08.219Z,79.88
2018-01-30T03:06:18.338Z,80.26
2018-01-30T03:07:28.479Z,80.26
2018-01-30T03:08:38.675Z,80.16
2018-01-30T03:09:48.790Z,80.74
2018-01-30T03:10:58.910Z,80.83
2018-01-30T03:12:09.057Z,81.3
2018-01-30T03:13:19.182Z,81.21
2018-01-30T03:14:29.378Z,81.59
2018-01-30T03:15:39.653Z,81.4
2018-01-30T03:16:49.872Z,81.68
2018-01-30T03:17:59.741Z,81.68
2018-01-30T03:19:09.608Z,82.07
2018-01-30T03:20:19.951Z,81.97
2018-01-30T03:21:29.864Z,82.54
2018-01-30T03:22:39.967Z,81.87
2018-01-30T03:23:50.116Z,81.97
2018-01-30T03:25:00.230Z,81.97
2018-01-30T03:26:10.424Z,81.97
2018-01-30T03:27:20.543Z,82.16
2018-01-30T03:28:30.645Z,81.78
2018-01-30T03:29:40.762Z,81.97
2018-01-30T03:30:50.995Z,82.07
2018-01-30T03:32:01.195Z,81.59
2018-01-30T03:33:11.361Z,81.68
2018-01-30T03:34:21.472Z,81.21
2018-01-30T03:35:31.571Z,81.49
2018-01-30T03:36:41.682Z,81.4
2018-01-30T03:37:51.464Z,81.49
2018-01-30T03:39:01.591Z,81.49
2018-01-30T03:40:11.699Z,81.49
2018-01-30T03:41:21.979Z,81.4
2018-01-30T03:42:32.129Z,81.4
2018-01-30T03:43:42.273Z,81.68
2018-01-30T03:44:52.371Z,81.49
2018-01-30T03:46:02.110Z,81.59
2018-01-30T03:47:12.240Z,82.16
2018-01-30T03:48:22.360Z,82.07
2018-01-30T03:49:32.529Z,82.45
2018-01-30T03:50:42.760Z,82.54
2018-01-30T03:51:52.938Z,82.16
2018-01-30T03:53:03.141Z,83.01
2018-01-30T03:54:13.259Z,83.2
2018-01-30T03:55:23.236Z,83.39
2018-01-30T03:56:33.447Z,83.87
2018-01-30T03:57:43.711Z,83.97
2018-01-30T03:58:53.832Z,84.63
2018-01-30T04:00:04.117Z,84.68
2018-01-30T04:01:14.300Z,84.91
2018-01-30T04:02:24.176Z,85.35
2018-01-30T04:03:34.318Z,85.25
2018-01-30T04:04:44.445Z,85.72
2018-01-30T04:05:54.727Z,86.11
2018-01-30T04:07:04.899Z,86.3
2018-01-30T04:08:15.042Z,86.58
2018-01-30T04:09:25.307Z,86.39
2018-01-30T04:10:35.447Z,86.68
2018-01-30T04:11:45.566Z,86.77
2018-01-30T04:12:55.523Z,86.58
2018-01-30T04:14:05.693Z,86.96
2018-01-30T04:15:15.872Z,86.3
2018-01-30T04:16:26.027Z,86.68
2018-01-30T04:17:36.148Z,86.11
2018-01-30T04:18:46.255Z,86.01
2018-01-30T04:19:56.373Z,86.01
2018-01-30T04:21:06.522Z,86.11
2018-01-30T04:22:16.756Z,85.44
2018-01-30T04:23:26.975Z,84.97
2018-01-30T04:24:37.070Z,85.06
2018-01-30T04:25:47.192Z,85.25
2018-01-30T04:26:57.310Z,84.97
2018-01-30T04:28:07.530Z,84.97
2018-01-30T04:29:17.721Z,85.53
2018-01-30T04:30:27.888Z,85.16
2018-01-30T04:31:38.044Z,84.97
2018-01-30T04:32:48.396Z,84.97
2018-01-30T04:33:58.489Z,85.06
2018-01-30T04:35:08.702Z,85.16
2018-01-30T04:36:18.943Z,85.06
2018-01-30T04:37:29.329Z,85.25
2018-01-30T04:38:39.497Z,85.53
2018-01-30T04:39:49.359Z,84.59
2018-01-30T04:40:59.478Z,84.97
2018-01-30T04:42:09.586Z,84.97
2018-01-30T04:43:19.727Z,84.97
2018-01-30T04:44:29.872Z,84.87
2018-01-30T04:45:39.980Z,85.06
2018-01-30T04:46:50.117Z,85.06
2018-01-30T04:48:00.254Z,85.35
2018-01-30T04:49:10.365Z,85.06
2018-01-30T04:50:20.607Z,85.25
2018-01-30T04:51:30.868Z,85.25
2018-01-30T04:52:41.083Z,85.06
2018-01-30T04:53:50.854Z,85.16
2018-01-30T04:55:01.087Z,84.97
2018-01-30T04:56:11.922Z,85.16
2018-01-30T04:57:22.057Z,84.97
2018-01-30T04:58:32.192Z,85.35
2018-01-30T04:59:42.441Z,84.97
2018-01-30T05:00:52.589Z,85.53
2018-01-30T05:02:02.806Z,85.35
2018-01-30T05:03:12.781Z,85.44
2018-01-30T05:04:22.941Z,85.44
2018-01-30T05:05:33.087Z,85.44
2018-01-30T05:06:43.204Z,85.35
2018-01-30T05:07:53.308Z,85.35
2018-01-30T05:09:03.439Z,85.35
2018-01-30T05:10:13.319Z,85.63
2018-01-30T05:11:23.413Z,85.53
2018-01-30T05:12:33.564Z,85.53
2018-01-30T05:13:43.729Z,85.16
2018-01-30T05:14:53.834Z,85.44
2018-01-30T05:16:03.833Z,85.35
2018-01-30T05:17:13.957Z,85.06
2018-01-30T05:18:24.077Z,85.35
2018-01-30T05:19:34.204Z,85.06
2018-01-30T05:20:44.350Z,84.97
2018-01-30T05:21:54.599Z,85.16
2018-01-30T05:23:04.898Z,85.44
2018-01-30T05:24:15.088Z,85.53
2018-01-30T05:25:25.257Z,84.68
2018-01-30T05:26:35.756Z,85.06
2018-01-30T05:27:45.884Z,85.16
2018-01-30T05:28:56.029Z,84.97
2018-01-30T05:30:06.254Z,84.49
2018-01-30T05:31:16.398Z,84.49
2018-01-30T05:32:26.622Z,84.21
2018-01-30T05:33:36.893Z,84.01
2018-01-30T05:34:47.148Z,84.21
2018-01-30T05:35:57.548Z,84.49
2018-01-30T05:37:07.693Z,84.59
2018-01-30T05:38:17.485Z,84.11
2018-01-30T05:39:27.588Z,84.3
2018-01-30T05:40:37.688Z,84.21
2018-01-30T05:41:47.809Z,84.21
2018-01-30T05:42:58.007Z,84.21
2018-01-30T05:44:08.151Z,84.11
2018-01-30T05:45:18.285Z,84.3
2018-01-30T05:46:28.435Z,84.21
2018-01-30T05:47:38.559Z,83.92
2018-01-30T05:48:48.771Z,83.73
2018-01-30T05:49:58.650Z,83.73
2018-01-30T05:51:08.810Z,83.83
2018-01-30T05:52:19.007Z,83.83
2018-01-30T05:53:29.166Z,83.73
2018-01-30T05:54:39.267Z,83.92
2018-01-30T05:55:49.425Z,84.49
2018-01-30T05:56:59.568Z,84.11
2018-01-30T05:58:09.457Z,84.11
2018-01-30T05:59:19.599Z,84.11
2018-01-30T06:00:29.707Z,84.3
2018-01-30T06:01:39.823Z,84.21
2018-01-30T06:02:49.914Z,84.21
2018-01-30T06:04:00.024Z,84.21
2018-01-30T06:05:10.174Z,84.11
2018-01-30T06:06:20.363Z,84.11
2018-01-30T06:07:30.525Z,84.11
2018-01-30T06:08:40.639Z,84.11
2018-01-30T06:09:50.785Z,84.01
2018-01-30T06:11:00.910Z,84.11
2018-01-30T06:12:11.043Z,84.01
2018-01-30T06:13:21.088Z,84.4
2018-01-30T06:14:30.937Z,84.11
2018-01-30T06:15:41.062Z,83.83
2018-01-30T06:16:51.249Z,83.83
2018-01-30T06:18:02.504Z,83.92
2018-01-30T06:19:12.665Z,84.4
2018-01-30T06:20:22.779Z,83.92
2018-01-30T06:21:32.947Z,83.83
2018-01-30T06:22:43.071Z,83.73
2018-01-30T06:23:53.207Z,83.83
2018-01-30T06:25:03.372Z,83.83
2018-01-30T06:26:13.502Z,83.92
2018-01-30T06:27:23.654Z,84.26
2018-01-30T06:28:33.805Z,83.83
2018-01-30T06:29:43.927Z,83.92
2018-01-30T06:30:54.051Z,83.73
2018-01-30T06:32:03.987Z,83.78
2018-01-30T06:33:14.090Z,83.73
2018-01-30T06:34:24.209Z,83.73
2018-01-30T06:35:34.322Z,83.88
2018-01-30T06:36:44.459Z,83.54
2018-01-30T06:37:54.572Z,83.88
2018-01-30T06:39:04.676Z,83.78
2018-01-30T06:40:14.522Z,83.59
2018-01-30T06:41:24.632Z,83.78
2018-01-30T06:42:34.761Z,83.78
2018-01-30T06:43:44.917Z,83.4
2018-01-30T06:44:55.088Z,83.64
2018-01-30T06:46:05.199Z,83.64
2018-01-30T06:47:15.050Z,83.45
2018-01-30T06:48:25.166Z,83.78
2018-01-30T06:49:35.047Z,83.45
2018-01-30T06:50:45.480Z,83.4
2018-01-30T06:51:55.579Z,83.45
2018-01-30T06:53:05.696Z,83.31
2018-01-30T06:54:15.609Z,83.64
2018-01-30T06:55:25.467Z,83.54
2018-01-30T06:56:35.579Z,83.69
2018-01-30T06:57:45.701Z,83.97
2018-01-30T06:58:55.858Z,83.88
2018-01-30T07:00:06.040Z,84.17
2018-01-30T07:01:16.229Z,84.4
2018-01-30T07:02:26.447Z,84.3
2018-01-30T07:03:36.611Z,84.21
2018-01-30T07:04:46.961Z,84.07
2018-01-30T07:05:56.738Z,84.49
2018-01-30T07:07:06.890Z,84.11
2018-01-30T07:08:17.033Z,84.11
2018-01-30T07:09:26.861Z,84.11
2018-01-30T07:10:37.110Z,84.4
2018-01-30T07:11:47.284Z,84.11
2018-01-30T07:12:57.501Z,83.92
2018-01-30T07:14:07.705Z,84.4
2018-01-30T07:15:17.824Z,84.59
2018-01-30T07:16:27.953Z,84.01
2018-01-30T07:17:38.078Z,84.11
2018-01-30T07:18:48.231Z,84.11
2018-01-30T07:19:58.436Z,84.11
2018-01-30T07:21:08.557Z,84.21
2018-01-30T07:22:18.741Z,84.21
2018-01-30T07:23:28.983Z,84.21
2018-01-30T07:24:39.185Z,84.4
2018-01-30T07:25:49.370Z,84.49
2018-01-30T07:26:59.471Z,84.11
2018-01-30T07:28:09.634Z,84.11
2018-01-30T07:29:19.781Z,83.92
2018-01-30T07:30:29.913Z,83.73
2018-01-30T07:31:40.044Z,83.92
2018-01-30T07:32:50.181Z,83.45
2018-01-30T07:34:00.319Z,83.83
2018-01-30T07:35:10.453Z,83.83
2018-01-30T07:36:20.606Z,83.83
2018-01-30T07:37:30.798Z,83.83
2018-01-30T07:38:40.935Z,83.83
2018-01-30T07:39:51.053Z,83.83
2018-01-30T07:41:01.033Z,83.45
2018-01-30T07:42:11.165Z,83.26
2018-01-30T07:43:21.387Z,83.26
2018-01-30T07:44:31.288Z,83.36
2018-01-30T07:45:41.390Z,83.36
2018-01-30T07:46:51.622Z,83.45
2018-01-30T07:48:01.801Z,83.16
2018-01-30T07:49:11.974Z,83.07
2018-01-30T07:50:22.194Z,83.07
2018-01-30T07:51:32.350Z,82.97
2018-01-30T07:52:42.472Z,83.36
2018-01-30T07:53:52.605Z,83.45
2018-01-30T07:55:02.727Z,83.49
2018-01-30T07:56:12.855Z,83.3
2018-01-30T07:57:22.991Z,83.3
2018-01-30T07:58:32.879Z,82.92
2018-01-30T07:59:42.755Z,82.82
2018-01-30T08:00:52.903Z,83.01
2018-01-30T08:02:03.087Z,83.11
2018-01-30T08:03:13.217Z,83.11
2018-01-30T08:04:23.430Z,82.82
2018-01-30T08:05:33.354Z,82.26
2018-01-30T08:06:43.476Z,82.45
2018-01-30T08:07:53.325Z,83.11
2018-01-30T08:09:03.465Z,82.54
2018-01-30T08:10:13.602Z,82.45
2018-01-30T08:11:30.059Z,82.16
2018-01-30T08:12:40.247Z,82.45
2018-01-30T08:13:50.380Z,82.16
2018-01-30T08:15:00.504Z,82.07
2018-01-30T08:16:10.636Z,81.97
2018-01-30T08:17:20.805Z,82.35
2018-01-30T08:18:31.033Z,81.87
2018-01-30T08:19:41.173Z,82.45
2018-01-30T08:20:51.320Z,81.97
2018-01-30T08:22:01.509Z,81.16
2018-01-30T08:23:11.607Z,80.4
2018-01-30T08:24:21.523Z,79.96
2018-01-30T08:25:31.806Z,79.77
2018-01-30T08:26:42.079Z,79.77
2018-01-30T08:27:52.291Z,79.86
2018-01-30T08:29:02.484Z,80.15
2018-01-30T08:30:12.711Z,79.58
2018-01-30T08:31:22.906Z,79.68
2018-01-30T08:32:33.084Z,79.73
2018-01-30T08:33:43.323Z,79.58
2018-01-30T08:34:53.480Z,79.58
2018-01-30T08:36:03.671Z,78
2018-01-30T08:37:13.832Z,76.9
2018-01-30T08:38:23.949Z,74.02
2018-01-30T08:39:34.118Z,72.92
2018-01-30T08:40:44.250Z,72.76
2018-01-30T08:41:54.437Z,69.81
2018-01-30T08:43:04.343Z,69.93
2018-01-30T08:44:14.493Z,67.21
2018-01-30T08:45:24.670Z,65.2
2018-01-30T08:46:34.801Z,66.19
2018-01-30T08:47:44.999Z,65.33
2018-01-30T08:48:55.211Z,65.74
2018-01-30T08:50:05.459Z,65.64
2018-01-30T08:51:15.703Z,63.1
2018-01-30T08:52:25.954Z,59.84
2018-01-30T08:53:36.281Z,59.84
2018-01-30T08:54:46.552Z,59.69
2018-01-30T08:55:56.457Z,59.01
2018-01-30T08:57:06.617Z,60.64
2018-01-30T08:58:16.785Z,58.28
2018-01-30T08:59:26.943Z,58.83
2018-01-30T09:00:37.143Z,58.98
2018-01-30T09:01:47.297Z,59.81
2018-01-30T09:02:57.485Z,61.22
2018-01-30T09:04:07.651Z,61.95
2018-01-30T09:05:17.846Z,62.88
2018-01-30T09:06:28.968Z,63.89
2018-01-30T09:07:39.157Z,64.24
2018-01-30T09:08:49.327Z,63.99
2018-01-30T09:09:59.604Z,63.7
2018-01-30T09:11:09.763Z,63.64
2018-01-30T09:12:20.146Z,63.2
2018-01-30T09:13:30.291Z,62.34
2018-01-30T09:14:40.465Z,62.05
2018-01-30T09:15:50.673Z,62.18
2018-01-30T09:17:00.787Z,62.18
2018-01-30T09:18:10.949Z,61.98
2018-01-30T09:19:21.123Z,60.17
2018-01-30T09:20:31.229Z,59.41
2018-01-30T09:21:41.447Z,58.48
2018-01-30T09:22:51.604Z,56.12
2018-01-30T09:24:01.948Z,57.07
2018-01-30T09:25:12.224Z,56.62
2018-01-30T09:26:22.404Z,57.17
2018-01-30T09:27:32.625Z,55.1
2018-01-30T09:28:42.832Z,55.96
2018-01-30T09:29:53.008Z,55
2018-01-30T09:31:03.176Z,54.93
2018-01-30T09:33:29.568Z,54
2018-01-30T09:34:39.471Z,55.69
2018-01-30T09:35:49.631Z,55.57
2018-01-30T09:36:59.795Z,55.26
2018-01-30T09:38:09.962Z,56.38
2018-01-30T09:39:20.087Z,56.92
2018-01-30T09:40:30.262Z,57.56
2018-01-30T09:41:40.464Z,57.59
2018-01-30T09:42:50.617Z,58.23
2018-01-30T09:44:00.864Z,57.4
2018-01-30T09:45:11.035Z,57.21
2018-01-30T09:46:21.170Z,56.92
2018-01-30T09:47:31.302Z,56.28
2018-01-30T09:48:41.182Z,56.47
2018-01-30T09:49:51.338Z,55.99
2018-01-30T09:51:01.526Z,55.8
2018-01-30T09:52:11.672Z,55.23
2018-01-30T09:53:21.827Z,55.99
2018-01-30T09:54:31.995Z,56.38
2018-01-30T09:55:42.158Z,56.63
2018-01-30T09:56:52.280Z,57.4
2018-01-30T09:58:02.462Z,58.23
2018-01-30T09:59:12.245Z,59.28
2018-01-30T10:00:22.429Z,59.73
2018-01-30T10:01:32.573Z,59.73
2018-01-30T10:02:42.703Z,59.85
2018-01-30T10:03:52.913Z,59.66
2018-01-30T10:05:03.122Z,60.3
2018-01-30T10:06:13.029Z,59.63
2018-01-30T10:07:23.150Z,59.63
2018-01-30T10:08:33.359Z,59.56
2018-01-30T10:09:43.518Z,58.93
2018-01-30T10:10:53.656Z,56.57
2018-01-30T10:12:03.860Z,55.64
2018-01-30T10:13:14.023Z,54.39
2018-01-30T10:14:23.871Z,55.16
2018-01-30T10:15:34.025Z,53.92
2018-01-30T10:16:44.300Z,54.71
2018-01-30T10:17:55.506Z,53.94
2018-01-30T10:19:05.754Z,54.78
2018-01-30T10:20:15.902Z,54.97
2018-01-30T10:21:26.166Z,54.3
2018-01-30T10:22:36.046Z,53.92
2018-01-30T10:23:46.246Z,53.89
2018-01-30T10:24:56.438Z,53.8
2018-01-30T10:26:06.721Z,53.89
2018-01-30T10:27:16.888Z,54.18
2018-01-30T10:28:27.044Z,54.68
2018-01-30T10:29:37.246Z,54.21
2018-01-30T10:30:47.470Z,54.14
2018-01-30T10:31:57.693Z,53.4
2018-01-30T10:33:08.039Z,50.43
2018-01-30T10:34:18.206Z,50.26
2018-01-30T10:35:28.435Z,49.33
2018-01-30T10:36:38.385Z,48.66
2018-01-30T10:37:48.526Z,47.82
2018-01-30T10:38:58.696Z,47.63
2018-01-30T10:40:08.866Z,46.89
2018-01-30T10:41:18.798Z,46.79
2018-01-30T10:42:28.958Z,45.26
2018-01-30T10:43:39.104Z,45.86
2018-01-30T10:44:49.248Z,46.62
2018-01-30T10:45:59.413Z,46.53
2018-01-30T10:47:09.560Z,45.18
2018-01-30T10:48:19.728Z,45.18
2018-01-30T10:49:29.702Z,45.64
2018-01-30T10:50:39.609Z,44.23
2018-01-30T10:51:49.980Z,45.26
2018-01-30T10:53:00.230Z,44.49
2018-01-30T10:54:10.417Z,44.78
2018-01-30T10:55:20.208Z,44.03
2018-01-30T10:56:30.206Z,45.16
2018-01-30T10:57:40.356Z,45.36
2018-01-30T10:58:50.557Z,43.34
2018-01-30T11:00:00.737Z,43.63
2018-01-30T11:01:10.643Z,43.91
2018-01-30T11:02:20.817Z,45.04
2018-01-30T11:03:31.058Z,46.29
2018-01-30T11:04:41.214Z,47.71
2018-01-30T11:05:51.356Z,48.44
2018-01-30T11:07:01.543Z,49.07
2018-01-30T11:08:11.715Z,49.93
2018-01-30T11:09:21.933Z,51.05
2018-01-30T11:10:31.869Z,51.98
2018-01-30T11:11:42.036Z,53.39
2018-01-30T11:12:52.202Z,54.22
2018-01-30T11:14:02.347Z,54.79
2018-01-30T11:15:12.521Z,55.82
2018-01-30T11:16:22.672Z,56.26
2018-01-30T11:17:32.956Z,57.03
2018-01-30T11:18:43.214Z,58.46
2018-01-30T11:19:53.438Z,57.95
2018-01-30T11:21:03.693Z,58.62
2018-01-30T11:22:13.878Z,58.72
2018-01-30T11:23:24.111Z,58.81
2018-01-30T11:24:34.279Z,59.19
2018-01-30T11:25:44.444Z,59.57
2018-01-30T11:26:54.584Z,59.76
2018-01-30T11:28:04.753Z,60.14
2018-01-30T11:29:14.909Z,60.21
2018-01-30T11:30:26.081Z,60.88
2018-01-30T11:31:36.261Z,61.25
2018-01-30T11:32:46.402Z,61.93
2018-01-30T11:33:56.688Z,62.08
2018-01-30T11:35:06.864Z,62.37
2018-01-30T11:36:17.036Z,62.85
2018-01-30T11:37:27.257Z,63.04
2018-01-30T11:38:37.447Z,63.51
2018-01-30T11:39:47.688Z,63.6
2018-01-30T11:40:57.825Z,64.37
2018-01-30T11:42:08.082Z,64.18
2018-01-30T11:43:18.384Z,64.18
2018-01-30T11:44:28.736Z,64.18
2018-01-30T11:45:38.972Z,64.53
2018-01-30T11:46:49.118Z,64.9
2018-01-30T11:47:59.272Z,65.13
2018-01-30T11:49:09.063Z,64.18
2018-01-30T11:50:19.183Z,64.21
2018-01-30T11:51:29.507Z,64.02
2018-01-30T11:52:39.685Z,64.02
2018-01-30T11:53:49.881Z,63.35
2018-01-30T11:54:59.766Z,63.54
2018-01-30T11:56:09.944Z,63.35
2018-01-30T11:57:20.105Z,63.64
2018-01-30T11:58:30.390Z,63.54
2018-01-30T11:59:40.582Z,63.45
2018-01-30T12:00:50.800Z,63.45
2018-01-30T12:02:00.690Z,62.78
2018-01-30T12:03:10.840Z,62.81
2018-01-30T12:04:20.998Z,62.24
2018-01-30T12:05:30.889Z,61.76
2018-01-30T12:06:42.020Z,61.67
2018-01-30T12:07:52.147Z,61.32
2018-01-30T12:09:02.048Z,60.27
2018-01-30T12:10:12.197Z,60.27
2018-01-30T12:11:22.433Z,60.39
2018-01-30T12:12:32.571Z,59.63
2018-01-30T12:13:42.698Z,59.25
2018-01-30T12:14:52.808Z,59.53
2018-01-30T12:16:02.819Z,59.25
2018-01-30T12:17:12.963Z,58.77
2018-01-30T12:18:23.128Z,57.82
2018-01-30T12:19:33.330Z,58.2
2018-01-30T12:20:43.492Z,58.77
2018-01-30T12:21:53.725Z,58.84
2018-01-30T12:23:03.300Z,59.51
2018-01-30T12:24:13.429Z,59.22
2018-01-30T12:25:23.574Z,58.94
2018-01-30T12:26:33.735Z,59.28
2018-01-30T12:27:43.614Z,59.67
2018-01-30T12:28:53.726Z,60.05
2018-01-30T12:30:03.889Z,60.52
2018-01-30T12:31:14.057Z,60.24
2018-01-30T12:32:24.285Z,60.43
2018-01-30T12:33:34.496Z,60.05
2018-01-30T12:34:44.657Z,60.33
2018-01-30T12:35:54.787Z,60.14
2018-01-30T12:37:04.929Z,60.24
2018-01-30T12:38:15.074Z,60.88
2018-01-30T12:39:25.214Z,60.88
2018-01-30T12:40:35.373Z,61.64
2018-01-30T12:41:45.583Z,61.64
2018-01-30T12:42:55.790Z,61.35
2018-01-30T12:44:05.984Z,61.64
2018-01-30T12:45:16.291Z,61.25
2018-01-30T12:46:26.544Z,61.35
2018-01-30T12:47:36.702Z,61.25
2018-01-30T12:48:47.074Z,60.88
2018-01-30T12:49:57.214Z,60.49
2018-01-30T12:51:07.449Z,60.81
2018-01-30T12:52:17.607Z,60.43
2018-01-30T12:53:27.836Z,60.14
2018-01-30T12:54:37.989Z,59.95
2018-01-30T12:55:48.360Z,59.76
2018-01-30T12:56:58.540Z,59.86
2018-01-30T12:58:08.729Z,60.14
2018-01-30T12:59:18.983Z,60.24
2018-01-30T13:00:29.161Z,59.57
2018-01-30T13:01:39.556Z,59.86
2018-01-30T13:02:49.718Z,59.76
2018-01-30T13:03:59.874Z,59.86
2018-01-30T13:05:10.117Z,60.14
2018-01-30T13:06:20.045Z,60.24
2018-01-30T13:07:30.208Z,59.95
2018-01-30T13:08:40.157Z,60.43
2018-01-30T13:09:50.366Z,60.49
2018-01-30T13:11:00.578Z,61.07
2018-01-30T13:12:10.729Z,61.35
2018-01-30T13:13:20.894Z,61.45
2018-01-30T13:14:31.046Z,61.35
2018-01-30T13:15:41.203Z,61.25
2018-01-30T13:16:51.358Z,60.88
2018-01-30T13:18:01.529Z,61.25
2018-01-30T13:19:11.709Z,61.54
2018-01-30T13:20:21.941Z,61.16
2018-01-30T13:21:32.157Z,61.35
2018-01-30T13:22:42.432Z,60.97
2018-01-30T13:23:52.704Z,61.16
2018-01-30T13:25:02.895Z,61.16
2018-01-30T13:26:13.107Z,61.45
2018-01-30T13:27:23.330Z,61.45
2018-01-30T13:28:33.510Z,61.22
2018-01-30T13:29:43.694Z,61.32
2018-01-30T13:30:53.888Z,61.7
2018-01-30T13:32:04.097Z,61.8
2018-01-30T13:33:13.982Z,61.8
2018-01-30T13:34:23.869Z,61.7
2018-01-30T13:35:34.339Z,61.61
2018-01-30T13:36:45.470Z,61.9
2018-01-30T13:37:55.747Z,61.99
2018-01-30T13:39:05.999Z,61.99
2018-01-30T13:40:16.163Z,61.99
2018-01-30T13:41:26.333Z,62.37
2018-01-30T13:42:36.562Z,62.46
2018-01-30T13:43:46.714Z,62.56
2018-01-30T13:44:56.890Z,62.46
2018-01-30T13:46:07.049Z,62.91
2018-01-30T13:47:17.193Z,62.81
2018-01-30T13:48:27.345Z,62.91
2018-01-30T13:49:37.532Z,62.62
2018-01-30T13:50:47.814Z,62.91
2018-01-30T13:51:57.963Z,62.91
2018-01-30T13:53:08.094Z,62.81
2018-01-30T13:54:18.365Z,63.01
2018-01-30T13:55:28.699Z,62.53
2018-01-30T13:56:38.884Z,62.81
2018-01-30T13:57:49.153Z,62.91
2018-01-30T13:58:59.331Z,62.81
2018-01-30T14:00:09.533Z,62.81
2018-01-30T14:01:19.712Z,62.72
2018-01-30T14:02:29.861Z,62.72
2018-01-30T14:03:40.095Z,62.43
2018-01-30T14:04:50.323Z,63.01
2018-01-30T14:06:00.572Z,62.53
2018-01-30T14:07:10.789Z,62.05
2018-01-30T14:08:21.126Z,62.34
2018-01-30T14:09:31.319Z,62.3
2018-01-30T14:10:41.479Z,62.53
2018-01-30T14:11:51.635Z,62.4
2018-01-30T14:13:01.828Z,62.97
2018-01-30T14:14:12.024Z,62.88
2018-01-30T14:15:22.345Z,62.88
2018-01-30T14:16:32.657Z,63.35
2018-01-30T14:17:42.801Z,63.39
2018-01-30T14:18:52.968Z,63.17
2018-01-30T14:20:03.227Z,63.54
2018-01-30T14:21:13.391Z,63.76
2018-01-30T14:22:23.548Z,63.83
2018-01-30T14:23:33.726Z,63.83
2018-01-30T14:24:44.090Z,63.86
2018-01-30T14:25:54.315Z,64.02
2018-01-30T14:27:04.754Z,63.48
2018-01-30T14:28:14.915Z,64.02
2018-01-30T14:29:25.112Z,64.21
2018-01-30T14:30:35.341Z,63.83
2018-01-30T14:31:45.481Z,64.02
2018-01-30T14:32:55.655Z,63.64
2018-01-30T14:34:05.837Z,64.4
2018-01-30T14:35:16.047Z,63.64
2018-01-30T14:36:26.255Z,64.11
2018-01-30T14:37:36.456Z,64.21
2018-01-30T14:38:46.607Z,63.83
2018-01-30T14:39:56.766Z,63.73
2018-01-30T14:41:06.901Z,63.83
2018-01-30T14:42:17.071Z,64.11
2018-01-30T14:43:26.963Z,64.11
2018-01-30T14:44:37.179Z,64.02
2018-01-30T14:45:47.389Z,64.11
2018-01-30T14:46:57.528Z,64.11
2018-01-30T14:48:07.704Z,64.69
2018-01-30T14:49:17.883Z,64.5
2018-01-30T14:50:28.107Z,64.5
2018-01-30T14:51:38.302Z,64.87
2018-01-30T14:52:48.479Z,64.87
2018-01-30T14:53:58.725Z,65.06
2018-01-30T14:55:09.026Z,64.69
2018-01-30T14:56:19.198Z,64.31
2018-01-30T14:57:29.366Z,64.5
2018-01-30T14:58:39.575Z,64.31
2018-01-30T14:59:49.838Z,64.5
2018-01-30T15:00:59.753Z,64.4
2018-01-30T15:02:09.883Z,64.69
2018-01-30T15:03:20.042Z,64.69
2018-01-30T15:04:30.259Z,64.69
2018-01-30T15:05:40.455Z,64.59
2018-01-30T15:06:50.666Z,64.4
2018-01-30T15:08:00.880Z,64.59